Edina, MN (55435)

15:19 CDT le 01 octobre 2014 (GMT -0500)
Lake Edina Park | Change Station
CLOSE
Current Station
Stations météorologiques personnelles
Location: Edina, MN
Altitude: 835 ft
Stations météo à proximité

Alt. 835 ft 44.87 °N, 93.34 °W | Updated 19 seconds ago

Couvert
Couvert
55.0 ° F
Paraît 55.0 ° F
N
0.0
Vent Variable Vent de Nord
Gusts 1.0 mph

Aujourd'hui
Haut(e) -- | Bas -- ° F
--% Risque de précip.
Hier
Haut(e) -- | Bas -- ° F
Precip. -- pouce
7:11 AM 6:53 PM
Lune montante, 50% visible
Pression 29.79 pouce
Visibilité 10.0 Miles terrestres
Nuages Couvert 800 ft
Point de rosée 54 ° F
Humidité 95%
Précipitations 0.42 pouce
Profondeur de la couche neigeuse Non disponible.
UV 1 sur 12
Pollen .40 sur 12
Ozone Bon
PM2.5 Bon
Flu Activity Non disponible.
METAR KMSP 011953Z 14006KT 10SM OVC008 12/11 A2978 RMK AO2 RAE31 SLP087 P0001 T01220111

More Conditions Fewer Conditions

Pression 29.79 pouce
Visibilité 10.0 Miles terrestres
Nuages Couvert 800 ft
Point de rosée 54 ° F
Humidité 95%
Précipitations 0.42 pouce
Profondeur de la couche neigeuse Non disponible.
UV 1 sur 12
Pollen .40 sur 12
Ozone Bon
PM2.5 Bon
Flu Activity Non disponible.
METAR KMSP 011953Z 14006KT 10SM OVC008 12/11 A2978 RMK AO2 RAE31 SLP087 P0001 T01220111

More Conditions Fewer Conditions

10-Day Weather Forecast

Almanac

Astronomie

Oct. 01, 2014 Lever Coucher
Temps réel 07:11 CDT 18:53 CDT
Crépuscule civil 06:42 CDT 19:22 CDT
Crépuscule nautique 06:08 CDT 19:56 CDT
Crépuscule astronomique 05:33 CDT 20:31 CDT
Lune 14:23 CDT Pas de coucher de lune
Durée de lumière visible 12h 40m
Longueur du jour
11h 42m
Tomorrow will be 3m 6s shorter.
Lune montante, 50% of the Moon is Illuminated
Aujourd'hui
Lune montante
Oct 8
Pleine lune
Oct 15
Dernier quartier
Oct 23
Nouveau
Oct 30
Premier quartier

Extrêmes aujourd'hui

State Highs State Lows

Community

WunderPhotos

Upload Photos

1,758,022 Photos téléchargées !

WunderBlogs® & News

By Dr. Jeff Masters
Director of Meteorology, Weather Underground
By Kari Strenfel
Meteorologist, Weather Underground
By Christopher C. Burt
Weather Historian, Weather Underground
October 1, 2014
October 1, 2014
October 1, 2014

Nearby

Qualité de l'air

  Qualité de l'air Indice de la qualité de l'air Polluant
Hier Bon
OZONE
Hier Bon
PM2.5
Actuel Bon
PM2.5
Actuel Bon
OZONE
mercredi Bon
OZONE
mercredi Bon
PM2.5
jeudi Bon
PM2.5
jeudi Bon
OZONE
vendredi Bon
OZONE
vendredi Bon
PM2.5
samedi Bon
OZONE
samedi Bon
PM2.5
dimanche Bon
OZONE
dimanche Bon
PM2.5
lundi Bon
OZONE
lundi Bon
PM2.5

Épaisseur de neige

Station Depth Altitude
Pas de nouvelles chutes de neige

Activité sismique

Ville Distance Mag. Time & Date
No recent earthquake activity has been reported nearby.
Minimum magnitude displayed is 2.5.

Températures des eaux côtières

Lieu Température
Aucun rapport de station

Stations météo à proximité